Time;durP1;ratioP1;P1;durP2;ratioP2;P2;SDS_P1;SDS_P2;PMS_P1;PMS_P2;Temp;Humidity;BMP_temperature;BMP_pressure;BME280_temperature;BME280_humidity;BME280_pressure;Samples;Min_cycle;Max_cycle;Signal;HPM_P1;HPM_P2
2022/03/24 00:00:44;;;;;;;;;;;;;;;26.85;60.04;97846.09;618728;229;64876;-64
2022/03/24 00:03:12;;;;;;;;;;;;;;;26.85;59.33;97845.30;618675;229;65211;-64
2022/03/24 00:05:39;;;;;;;;;;;;;;;26.83;59.43;97842.08;618740;229;63106;-64
2022/03/24 00:08:08;;;;;;;;;;;;;;;26.83;59.15;97831.29;618722;229;64926;-64
2022/03/24 00:10:36;;;;;;;;;;;;;;;26.82;59.39;97835.06;618745;229;67026;-64
2022/03/24 00:13:03;;;;;;;;;;;;;;;26.81;59.42;97828.86;618718;229;63151;-64
2022/03/24 00:15:31;;;;;;;;;;;;;;;26.81;59.66;97826.17;618719;229;67065;-64
2022/03/24 00:17:59;;;;;;;;;;;;;;;26.80;59.78;97816.48;618707;229;64601;-64
2022/03/24 00:20:27;;;;;;;;;;;;;;;26.78;59.61;97811.37;618757;229;65370;-64
2022/03/24 00:22:55;;;;;;;;;;;;;;;26.77;60.05;97801.69;618718;229;64317;-64
2022/03/24 00:25:24;;;;;;;;;;;;;;;26.78;59.32;97794.39;618793;229;64401;-64
2022/03/24 00:27:51;;;;;;;;;;;;;;;26.75;59.14;97790.37;618722;229;65269;-64
2022/03/24 00:30:19;;;;;;;;;;;;;;;26.76;59.59;97789.30;618730;227;67046;-64
2022/03/24 00:32:46;;;;;;;;;;;;;;;26.76;60.14;97783.09;618737;229;64434;-64
2022/03/24 00:35:14;;;;;;;;;;;;;;;26.75;59.37;97781.49;618737;229;63931;-64
2022/03/24 00:37:42;;;;;;;;;;;;;;;26.74;59.70;97779.90;618756;229;65569;-64
2022/03/24 00:40:16;;;;;;;;;;;;;;;26.73;59.96;97770.98;618734;229;67587;-64
2022/03/24 00:42:41;;;;;;;;;;;;;;;26.71;59.44;97770.50;618589;229;65565;-64
2022/03/24 00:45:12;;;;;;;;;;;;;;;26.69;59.89;97772.67;618713;229;66774;-64
2022/03/24 00:47:40;;;;;;;;;;;;;;;26.69;59.79;97769.98;618718;229;67807;-63
2022/03/24 00:50:08;;;;;;;;;;;;;;;26.70;60.10;97768.87;618744;229;65411;-63
2022/03/24 00:52:45;;;;;;;;;;;;;;;26.68;59.78;97767.55;618674;229;67082;-63
2022/03/24 00:55:05;;;;;;;;;;;;;;;26.68;59.76;97760.30;618040;229;66915;-63
2022/03/24 00:57:33;;;;;;;;;;;;;;;26.68;59.94;97759.47;618721;229;65494;-63
2022/03/24 01:00:02;;;;;;;;;;;;;;;26.65;60.18;97755.45;618757;229;44942;-63
2022/03/24 01:02:30;;;;;;;;;;;;;;;26.65;59.23;97749.27;618716;229;67726;-63
2022/03/24 01:04:57;;;;;;;;;;;;;;;26.64;59.81;97751.17;618752;229;62911;-63
2022/03/24 01:07:25;;;;;;;;;;;;;;;26.64;60.25;97744.98;618722;229;65568;-62
2022/03/24 01:09:54;;;;;;;;;;;;;;;26.63;60.88;97749.58;618718;229;67346;-64
2022/03/24 01:12:22;;;;;;;;;;;;;;;26.61;60.02;97738.27;618717;229;65402;-64
2022/03/24 01:14:50;;;;;;;;;;;;;;;26.60;60.42;97739.38;618671;229;64823;-64
2022/03/24 01:17:18;;;;;;;;;;;;;;;26.59;60.06;97745.84;618739;229;65147;-64
2022/03/24 01:19:45;;;;;;;;;;;;;;;26.58;60.24;97736.16;616638;229;65102;-64
2022/03/24 01:22:14;;;;;;;;;;;;;;;26.58;60.79;97728.08;616663;230;65826;-63
2022/03/24 01:24:42;;;;;;;;;;;;;;;26.58;60.29;97729.97;616685;230;67511;-63
2022/03/24 01:27:11;;;;;;;;;;;;;;;26.57;60.31;97715.67;616658;230;62736;-64
2022/03/24 01:29:38;;;;;;;;;;;;;;;26.56;59.88;97712.17;616702;230;64818;-64
2022/03/24 01:32:07;;;;;;;;;;;;;;;26.58;60.27;97713.80;616623;230;67513;-63
2022/03/24 01:34:35;;;;;;;;;;;;;;;26.54;60.27;97708.97;616660;230;63203;-63
2022/03/24 01:37:03;;;;;;;;;;;;;;;26.53;60.29;97714.66;616666;230;66836;-63
2022/03/24 01:39:31;;;;;;;;;;;;;;;26.52;60.40;97707.67;616660;230;64978;-63
2022/03/24 01:42:00;;;;;;;;;;;;;;;26.51;59.51;97706.05;616644;230;62812;-64
2022/03/24 01:44:29;;;;;;;;;;;;;;;26.50;60.55;97707.13;616694;230;45862;-63
2022/03/24 01:47:01;;;;;;;;;;;;;;;26.51;60.30;97708.75;616547;230;66921;-64
2022/03/24 01:49:30;;;;;;;;;;;;;;;26.49;60.51;97702.81;616678;230;63270;-63
2022/03/24 01:51:58;;;;;;;;;;;;;;;26.49;60.27;97698.25;616642;230;67138;-64
2022/03/24 01:54:30;;;;;;;;;;;;;;;26.47;60.64;97696.93;616700;230;67360;-64
2022/03/24 01:56:58;;;;;;;;;;;;;;;26.45;58.81;97699.11;616623;230;65636;-64
2022/03/24 01:59:26;;;;;;;;;;;;;;;26.46;60.75;97698.00;616684;230;67590;-63
2022/03/24 02:01:54;;;;;;;;;;;;;;;26.45;60.09;97696.41;616675;230;67048;-63
2022/03/24 02:04:22;;;;;;;;;;;;;;;26.44;60.53;97690.23;616674;229;65350;-63
2022/03/24 02:06:51;;;;;;;;;;;;;;;26.43;60.44;97688.61;616728;230;64871;-63
2022/03/24 02:09:19;;;;;;;;;;;;;;;26.44;60.25;97690.23;616678;230;64883;-63
2022/03/24 02:11:48;;;;;;;;;;;;;;;26.43;60.93;97690.50;616675;230;66180;-63
2022/03/24 02:14:17;;;;;;;;;;;;;;;26.42;60.98;97694.30;616752;230;40605;-63
2022/03/24 02:16:46;;;;;;;;;;;;;;;26.41;60.67;97684.59;616672;230;64980;-63
2022/03/24 02:19:16;;;;;;;;;;;;;;;26.40;60.70;97691.09;618331;229;62977;-63
2022/03/24 02:21:45;;;;;;;;;;;;;;;26.38;60.70;97685.17;618767;229;65036;-63
2022/03/24 02:24:13;;;;;;;;;;;;;;;26.38;60.22;97680.58;618743;229;64625;-63
2022/03/24 02:26:42;;;;;;;;;;;;;;;26.38;61.05;97679.78;618750;229;65350;-63
2022/03/24 02:29:11;;;;;;;;;;;;;;;26.35;60.60;97675.78;618721;229;65114;-63
2022/03/24 02:31:39;;;;;;;;;;;;;;;26.37;60.67;97678.20;618699;229;67395;-63
2022/03/24 02:36:53;;;;;;;;;;;;;;;26.34;61.50;97674.98;618769;229;67264;-63
2022/03/24 02:39:21;;;;;;;;;;;;;;;26.34;60.90;97674.19;618758;229;66860;-63
2022/03/24 02:41:50;;;;;;;;;;;;;;;26.31;60.86;97680.95;618733;229;62909;-63
2022/03/24 02:44:19;;;;;;;;;;;;;;;26.31;61.15;97682.85;618704;229;67338;-63
2022/03/24 02:46:47;;;;;;;;;;;;;;;26.32;60.96;97676.36;618726;229;64855;-63
2022/03/24 02:49:17;;;;;;;;;;;;;;;26.30;60.81;97673.97;618786;229;65387;-63
2022/03/24 02:51:44;;;;;;;;;;;;;;;26.28;60.72;97673.45;618720;229;66871;-64
2022/03/24 02:54:12;;;;;;;;;;;;;;;26.27;60.68;97674.56;618760;229;67177;-64
2022/03/24 02:56:42;;;;;;;;;;;;;;;26.29;59.78;97671.55;618689;229;65131;-64
2022/03/24 02:59:10;;;;;;;;;;;;;;;26.26;59.63;97672.94;618543;229;65034;-64
2022/03/24 03:01:38;;;;;;;;;;;;;;;26.26;59.84;97666.75;618749;229;67014;-64
2022/03/24 03:04:06;;;;;;;;;;;;;;;26.26;60.76;97667.55;618716;229;63235;-64
2022/03/24 03:06:33;;;;;;;;;;;;;;;26.23;60.44;97665.44;618733;229;64841;-64
2022/03/24 03:09:02;;;;;;;;;;;;;;;26.22;61.03;97665.70;618745;229;67028;-64
2022/03/24 03:11:33;;;;;;;;;;;;;;;26.21;60.51;97664.12;618739;229;64996;-64
2022/03/24 03:14:01;;;;;;;;;;;;;;;26.21;61.18;97667.61;618730;229;64983;-64
2022/03/24 03:16:29;;;;;;;;;;;;;;;26.21;61.06;97664.12;618767;229;67052;-64
2022/03/24 03:18:57;;;;;;;;;;;;;;;26.19;61.06;97661.73;618697;229;65267;-64
2022/03/24 03:21:25;;;;;;;;;;;;;;;26.20;62.18;97665.22;618727;229;67150;-64
2022/03/24 03:23:52;;;;;;;;;;;;;;;26.18;61.95;97662.80;618726;229;65063;-64
2022/03/24 03:26:23;;;;;;;;;;;;;;;26.18;60.60;97660.11;618714;229;65464;-64
2022/03/24 03:28:54;;;;;;;;;;;;;;;26.16;61.22;97661.48;618743;229;67163;-64
2022/03/24 03:31:20;;;;;;;;;;;;;;;26.15;61.75;97657.20;618487;229;67076;-64
2022/03/24 03:33:47;;;;;;;;;;;;;;;26.14;61.33;97656.41;618731;229;63136;-64
2022/03/24 03:36:15;;;;;;;;;;;;;;;26.14;61.67;97661.80;618715;229;65178;-64
2022/03/24 03:38:43;;;;;;;;;;;;;;;26.12;61.31;97666.66;618776;229;66780;-64
2022/03/24 03:41:11;;;;;;;;;;;;;;;26.12;61.84;97653.19;618736;229;65273;-64
2022/03/24 03:43:39;;;;;;;;;;;;;;;26.11;61.32;97656.98;618736;229;67046;-65
2022/03/24 03:46:08;;;;;;;;;;;;;;;26.12;61.84;97655.88;618686;229;67339;-65
2022/03/24 03:48:37;;;;;;;;;;;;;;;26.10;61.88;97655.36;618730;229;65280;-65
2022/03/24 03:51:06;;;;;;;;;;;;;;;26.07;60.91;97656.73;618554;229;67365;-64
2022/03/24 03:53:33;;;;;;;;;;;;;;;26.08;63.15;97655.67;618703;229;67018;-64
2022/03/24 03:56:01;;;;;;;;;;;;;;;26.05;61.33;97655.42;618776;229;65107;-64
2022/03/24 03:58:29;;;;;;;;;;;;;;;26.05;61.21;97655.42;618711;229;67185;-64
2022/03/24 04:00:56;;;;;;;;;;;;;;;26.03;62.01;97650.34;618736;229;67072;-64
2022/03/24 04:03:28;;;;;;;;;;;;;;;26.02;63.03;97662.19;618749;229;65435;-64
2022/03/24 04:05:57;;;;;;;;;;;;;;;26.02;61.47;97662.19;618683;229;66992;-62
2022/03/24 04:08:26;;;;;;;;;;;;;;;26.02;62.23;97664.08;618801;229;64940;-64
2022/03/24 04:10:54;;;;;;;;;;;;;;;26.01;61.53;97659.80;618705;229;65342;-64
2022/03/24 04:13:22;;;;;;;;;;;;;;;26.01;62.84;97654.41;618706;229;67426;-64
2022/03/24 04:15:50;;;;;;;;;;;;;;;25.99;62.34;97651.20;618695;229;67003;-64
2022/03/24 04:18:18;;;;;;;;;;;;;;;25.98;62.76;97649.61;618702;229;63267;-64
2022/03/24 04:20:46;;;;;;;;;;;;;;;25.98;62.23;97649.61;618773;229;67215;-64
2022/03/24 04:23:13;;;;;;;;;;;;;;;25.96;61.96;97646.39;618697;229;67056;-64
2022/03/24 04:25:41;;;;;;;;;;;;;;;25.97;63.02;97642.59;618759;229;65076;-64
2022/03/24 04:28:08;;;;;;;;;;;;;;;25.95;62.00;97644.80;618730;229;64408;-64
2022/03/24 04:30:36;;;;;;;;;;;;;;;25.94;62.99;97645.87;618758;229;64807;-64
2022/03/24 04:33:09;;;;;;;;;;;;;;;25.93;62.91;97644.28;618723;229;65478;-64
2022/03/24 04:35:34;;;;;;;;;;;;;;;25.90;62.05;97643.76;618568;229;66943;-63
2022/03/24 04:38:04;;;;;;;;;;;;;;;25.91;62.53;97637.27;618771;229;66884;-63
2022/03/24 04:40:31;;;;;;;;;;;;;;;25.89;61.71;97638.64;618751;229;65437;-63
2022/03/24 04:42:59;;;;;;;;;;;;;;;25.88;62.55;97645.92;618726;229;66873;-63
2022/03/24 04:45:29;;;;;;;;;;;;;;;25.88;62.28;97639.75;618692;229;66806;-63
2022/03/24 04:47:55;;;;;;;;;;;;;;;25.87;62.92;97638.95;618731;229;65431;-63
2022/03/24 04:50:23;;;;;;;;;;;;;;;25.87;63.32;97644.34;618704;229;67753;-63
2022/03/24 04:52:51;;;;;;;;;;;;;;;25.85;63.86;97640.33;618739;229;66760;-63
2022/03/24 04:55:18;;;;;;;;;;;;;;;25.84;63.64;97639.53;618703;229;65380;-63
2022/03/24 04:57:46;;;;;;;;;;;;;;;25.84;64.17;97644.12;618680;229;67267;-64
2022/03/24 05:00:17;;;;;;;;;;;;;;;25.84;63.53;97642.22;618699;229;67527;-64
2022/03/24 05:02:43;;;;;;;;;;;;;;;25.83;62.58;97658.63;618639;229;63292;-63
2022/03/24 05:05:10;;;;;;;;;;;;;;;25.81;63.09;97642.77;618683;229;67032;-64
2022/03/24 05:07:38;;;;;;;;;;;;;;;25.80;64.20;97649.22;618692;229;67029;-65
2022/03/24 05:10:06;;;;;;;;;;;;;;;25.79;62.73;97644.94;618715;229;65300;-64
2022/03/24 05:12:33;;;;;;;;;;;;;;;25.79;64.88;97650.33;618727;229;67217;-64
2022/03/24 05:15:01;;;;;;;;;;;;;;;25.77;64.14;97649.80;618661;229;66589;-63
2022/03/24 05:17:28;;;;;;;;;;;;;;;25.76;61.87;97648.20;618675;229;65222;-64
2022/03/24 05:19:56;;;;;;;;;;;;;;;25.75;63.74;97646.59;618721;229;66735;-64
2022/03/24 05:22:24;;;;;;;;;;;;;;;25.75;63.77;97649.28;618718;227;64942;-64
2022/03/24 05:24:51;;;;;;;;;;;;;;;25.77;64.18;97651.70;618682;229;64093;-64
2022/03/24 05:27:19;;;;;;;;;;;;;;;25.78;62.50;97650.59;618734;229;65275;-64
2022/03/24 05:29:46;;;;;;;;;;;;;;;25.76;64.17;97648.20;618705;229;67209;-64
2022/03/24 05:32:14;;;;;;;;;;;;;;;25.72;63.02;97647.16;618691;229;65232;-64
2022/03/24 05:34:41;;;;;;;;;;;;;;;25.72;64.53;97636.39;618741;229;65131;-64
2022/03/24 05:37:09;;;;;;;;;;;;;;;25.72;63.05;97643.67;618686;229;67120;-64
2022/03/24 05:39:36;;;;;;;;;;;;;;;25.72;63.69;97649.06;618784;229;65249;-65
2022/03/24 05:42:04;;;;;;;;;;;;;;;25.72;63.49;97647.16;618748;227;66763;-64
2022/03/24 05:44:32;;;;;;;;;;;;;;;25.72;64.13;97641.78;618744;229;66927;-64
2022/03/24 05:46:59;;;;;;;;;;;;;;;25.72;64.15;97647.16;618730;229;65496;-64
2022/03/24 05:49:27;;;;;;;;;;;;;;;25.72;63.67;97644.47;618707;229;64594;-64
2022/03/24 05:51:59;;;;;;;;;;;;;;;25.74;62.20;97644.20;618846;229;49143;-64
2022/03/24 05:54:27;;;;;;;;;;;;;;;25.76;63.50;97647.41;618691;229;65341;-64
2022/03/24 05:56:54;;;;;;;;;;;;;;;25.74;62.85;97636.92;618734;229;66759;-64
2022/03/24 05:59:22;;;;;;;;;;;;;;;25.75;62.76;97637.71;618710;229;66877;-65
2022/03/24 06:01:49;;;;;;;;;;;;;;;25.74;63.30;97628.84;618625;229;62900;-65
2022/03/24 06:04:18;;;;;;;;;;;;;;;25.75;63.57;97630.43;618644;229;66915;-65
2022/03/24 06:06:47;;;;;;;;;;;;;;;25.77;63.84;97630.95;618582;229;66440;-65
2022/03/24 06:09:14;;;;;;;;;;;;;;;25.76;64.09;97626.67;617902;229;65550;-65
2022/03/24 06:11:42;;;;;;;;;;;;;;;25.78;62.74;97629.06;618655;229;64417;-65
2022/03/24 06:14:10;;;;;;;;;;;;;;;25.78;62.43;97624.50;618710;229;67035;-65
2022/03/24 06:16:38;;;;;;;;;;;;;;;25.80;61.89;97627.69;618688;229;65340;-64
2022/03/24 06:19:05;;;;;;;;;;;;;;;25.80;62.50;97621.50;618739;229;66710;-64
2022/03/24 06:21:32;;;;;;;;;;;;;;;25.80;62.61;97619.61;618718;229;66696;-64
2022/03/24 06:24:00;;;;;;;;;;;;;;;25.81;61.68;97626.61;618715;229;65392;-64
2022/03/24 06:26:29;;;;;;;;;;;;;;;25.82;62.77;97613.95;618713;229;66961;-64
2022/03/24 06:28:56;;;;;;;;;;;;;;;25.83;62.39;97616.37;618582;229;66852;-64
2022/03/24 06:31:24;;;;;;;;;;;;;;;25.84;61.78;97609.91;618731;229;65357;-64
2022/03/24 06:33:53;;;;;;;;;;;;;;;25.85;63.24;97610.70;618340;229;66404;-64
2022/03/24 06:36:21;;;;;;;;;;;;;;;25.87;62.21;97606.64;618235;229;64668;-64
2022/03/24 06:38:49;;;;;;;;;;;;;;;25.87;62.18;97603.95;618701;229;65256;-64
2022/03/24 06:41:16;;;;;;;;;;;;;;;25.89;62.30;97598.25;618718;229;67280;-64
2022/03/24 06:43:45;;;;;;;;;;;;;;;25.89;61.71;97599.08;618757;229;66920;-64
2022/03/24 06:46:12;;;;;;;;;;;;;;;25.91;61.93;97593.39;618720;229;62947;-64
2022/03/24 06:48:40;;;;;;;;;;;;;;;25.93;61.48;97593.11;618704;229;66921;-63
2022/03/24 06:51:07;;;;;;;;;;;;;;;25.94;61.85;97597.39;618667;229;66873;-63
2022/03/24 06:53:35;;;;;;;;;;;;;;;25.94;61.80;97589.32;618651;229;65146;-64
2022/03/24 06:56:05;;;;;;;;;;;;;;;25.96;61.66;97595.22;618829;227;67073;-64
2022/03/24 06:58:32;;;;;;;;;;;;;;;25.96;61.70;97587.94;618635;229;65657;-65
2022/03/24 07:00:59;;;;;;;;;;;;;;;25.95;62.06;97580.17;618035;229;64049;-68
2022/03/24 07:03:27;;;;;;;;;;;;;;;25.95;61.18;97580.17;618712;229;66749;-71
2022/03/24 07:05:54;;;;;;;;;;;;;;;25.94;61.18;97578.55;616973;229;64449;-70
2022/03/24 07:08:28;;;;;;;;;;;;;;;25.94;60.56;97579.34;616199;230;63017;-72
2022/03/24 07:10:52;;;;;;;;;;;;;;;25.96;60.18;97581.77;616049;230;67027;-72
2022/03/24 07:13:20;;;;;;;;;;;;;;;25.96;60.86;97576.38;616754;230;66797;-66
2022/03/24 07:15:48;;;;;;;;;;;;;;;25.95;58.58;97575.58;616708;230;63252;-71
2022/03/24 07:18:15;;;;;;;;;;;;;;;25.95;60.33;97564.81;617734;229;64860;-71
2022/03/24 07:20:43;;;;;;;;;;;;;;;25.98;59.12;97568.81;619461;229;64259;-71
2022/03/24 07:23:11;;;;;;;;;;;;;;;25.99;59.28;97557.73;619353;229;63059;-68
2022/03/24 07:25:44;;;;;;;;;;;;;;;26.00;59.40;97561.22;619363;229;66875;-70
2022/03/24 07:28:10;;;;;;;;;;;;;;;26.01;60.20;97560.95;618950;228;67226;-69
2022/03/24 07:30:38;;;;;;;;;;;;;;;26.06;59.85;97560.08;619068;229;65115;-71
2022/03/24 07:33:07;;;;;;;;;;;;;;;26.09;57.90;97562.98;619341;229;67060;-72
2022/03/24 07:35:35;;;;;;;;;;;;;;;26.12;59.29;97556.22;620786;227;67017;-68
2022/03/24 07:38:02;;;;;;;;;;;;;;;26.14;59.51;97554.04;623283;227;65733;-71
2022/03/24 07:40:30;;;;;;;;;;;;;;;26.16;58.92;97554.53;623960;227;64640;-70
2022/03/24 07:42:58;;;;;;;;;;;;;;;26.17;59.19;97542.68;623985;227;66595;-71
2022/03/24 07:45:26;;;;;;;;;;;;;;;26.19;59.32;97551.28;623977;227;65296;-71
2022/03/24 07:48:09;;;;;;;;;;;;;;;26.20;59.47;97546.69;623968;227;64322;-73
2022/03/24 07:50:34;;;;;;;;;;;;;;;26.21;59.26;97551.77;618995;227;65504;-70
2022/03/24 07:53:06;;;;;;;;;;;;;;;26.23;60.59;97543.41;623927;227;65158;-65
2022/03/24 07:55:35;;;;;;;;;;;;;;;26.21;56.51;97540.98;623860;227;64915;-72
2022/03/24 07:58:02;;;;;;;;;;;;;;;26.17;59.43;97548.06;623898;227;64230;-72
2022/03/24 08:00:30;;;;;;;;;;;;;;;26.14;59.49;97543.27;624025;227;65481;-72
2022/03/24 08:02:57;;;;;;;;;;;;;;;26.11;59.72;97541.95;623961;227;67644;-72
2022/03/24 08:05:26;;;;;;;;;;;;;;;26.11;59.20;97547.34;623975;227;66624;-73
2022/03/24 08:07:56;;;;;;;;;;;;;;;26.13;58.89;97545.13;623942;227;65254;-73
2022/03/24 08:10:24;;;;;;;;;;;;;;;26.14;58.54;97540.58;623967;227;66738;-74
2022/03/24 08:12:52;;;;;;;;;;;;;;;26.16;58.35;97535.67;623971;227;66678;-75
2022/03/24 08:15:20;;;;;;;;;;;;;;;26.17;58.07;97542.68;623963;227;65141;-76
2022/03/24 08:17:49;;;;;;;;;;;;;;;26.17;57.99;97531.91;623635;227;64515;-66
2022/03/24 08:20:17;;;;;;;;;;;;;;;26.17;58.55;97544.58;622537;228;64569;-72
2022/03/24 08:22:44;;;;;;;;;;;;;;;26.16;58.36;97535.67;622615;228;65095;-71
2022/03/24 08:25:13;;;;;;;;;;;;;;;26.17;57.48;97534.59;622709;228;66745;-71
2022/03/24 08:27:40;;;;;;;;;;;;;;;26.18;58.65;97538.09;622592;228;66678;-76
2022/03/24 08:30:08;;;;;;;;;;;;;;;26.19;58.03;97537.81;622585;228;62964;-66
2022/03/24 08:32:36;;;;;;;;;;;;;;;26.21;59.06;97532.91;622637;228;66918;-67
2022/03/24 08:35:03;;;;;;;;;;;;;;;26.22;57.78;97534.53;622616;228;66274;-66
2022/03/24 08:37:31;;;;;;;;;;;;;;;26.23;58.54;97533.42;622605;228;65350;-68
2022/03/24 08:39:58;;;;;;;;;;;;;;;26.26;58.01;97537.42;622655;228;66509;-65
2022/03/24 08:42:26;;;;;;;;;;;;;;;26.26;58.38;97537.42;622606;228;66773;-68
2022/03/24 08:44:53;;;;;;;;;;;;;;;26.29;58.37;97536.84;622638;228;65325;-69
2022/03/24 08:47:21;;;;;;;;;;;;;;;26.30;58.05;97539.25;622638;228;66720;-68
2022/03/24 08:49:48;;;;;;;;;;;;;;;26.31;57.24;97532.76;622566;228;66621;-68
2022/03/24 08:52:16;;;;;;;;;;;;;;;26.33;57.83;97532.48;622670;228;65409;-69
2022/03/24 08:54:43;;;;;;;;;;;;;;;26.35;58.84;97535.66;622612;228;66774;-68
2022/03/24 08:57:10;;;;;;;;;;;;;;;26.37;58.51;97527.30;622553;228;67490;-69
2022/03/24 08:59:38;;;;;;;;;;;;;;;26.39;58.20;97525.11;622553;228;65314;-69
2022/03/24 09:02:06;;;;;;;;;;;;;;;26.40;58.31;97516.72;622495;228;66723;-64
2022/03/24 09:04:33;;;;;;;;;;;;;;;26.41;58.66;97525.59;622654;228;66787;-71
2022/03/24 09:07:02;;;;;;;;;;;;;;;26.42;57.45;97528.02;622613;228;65232;-68
2022/03/24 09:09:29;;;;;;;;;;;;;;;26.44;58.14;97527.73;622592;228;65042;-79
2022/03/24 09:11:57;;;;;;;;;;;;;;;26.45;58.03;97522.03;622607;228;64532;-76
2022/03/24 09:14:24;;;;;;;;;;;;;;;26.47;57.92;97519.84;622555;228;64095;-75
2022/03/24 09:16:51;;;;;;;;;;;;;;;26.49;57.84;97514.14;622590;228;64646;-76
2022/03/24 09:19:19;;;;;;;;;;;;;;;26.51;58.56;97520.08;622552;228;64567;-67
2022/03/24 09:21:46;;;;;;;;;;;;;;;26.50;57.98;97511.17;622568;228;64082;-72
2022/03/24 09:24:14;;;;;;;;;;;;;;;26.53;57.28;97520.59;622594;228;66578;-72
2022/03/24 09:26:41;;;;;;;;;;;;;;;26.54;56.74;97514.09;622608;228;66596;-72
2022/03/24 09:29:10;;;;;;;;;;;;;;;26.56;56.92;97511.91;622592;228;65424;-73
2022/03/24 09:31:37;;;;;;;;;;;;;;;26.58;56.78;97511.63;622585;228;66671;-72
2022/03/24 09:34:05;;;;;;;;;;;;;;;26.59;56.96;97515.91;622600;228;65397;-73
2022/03/24 09:36:32;;;;;;;;;;;;;;;26.58;57.16;97522.41;622617;228;63166;-73
2022/03/24 09:39:00;;;;;;;;;;;;;;;26.60;56.42;97520.20;622571;228;64302;-71
2022/03/24 09:41:28;;;;;;;;;;;;;;;26.62;56.50;97507.23;622583;228;66656;-71
2022/03/24 09:43:57;;;;;;;;;;;;;;;26.63;55.40;97504.25;622611;228;65576;-72
2022/03/24 09:46:26;;;;;;;;;;;;;;;26.65;55.74;97509.33;622490;228;66705;-72
2022/03/24 09:48:53;;;;;;;;;;;;;;;26.65;56.32;97512.83;622595;228;66803;-71
2022/03/24 09:51:25;;;;;;;;;;;;;;;26.65;56.38;97507.43;622594;228;65341;-72
2022/03/24 09:53:52;;;;;;;;;;;;;;;26.67;55.68;97507.15;622485;228;67183;-71
2022/03/24 09:56:20;;;;;;;;;;;;;;;26.67;56.61;97510.64;622634;228;67175;-71
2022/03/24 09:58:50;;;;;;;;;;;;;;;26.67;55.26;97507.15;622578;228;65139;-72
2022/03/24 10:01:18;;;;;;;;;;;;;;;26.69;56.36;97513.05;620761;226;66867;-70
2022/03/24 10:04:02;;;;;;;;;;;;;;;26.69;56.49;97511.16;615177;230;64565;-72
2022/03/24 10:06:30;;;;;;;;;;;;;;;26.69;56.77;97508.45;615008;228;63029;-72
2022/03/24 10:08:58;;;;;;;;;;;;;;;26.69;57.93;97500.37;615051;230;64784;-72
2022/03/24 10:11:26;;;;;;;;;;;;;;;26.69;56.98;97484.19;615106;230;67209;-72
2022/03/24 10:13:55;;;;;;;;;;;;;;;26.71;58.68;97490.09;615017;230;63339;-71
2022/03/24 10:16:40;;;;;;;;;;;;;;;26.72;56.69;97496.28;615131;230;67123;-70
2022/03/24 10:19:07;;;;;;;;;;;;;;;26.73;56.94;97484.39;614990;230;64984;-64
2022/03/24 10:21:36;;;;;;;;;;;;;;;26.71;57.74;97482.01;615022;228;65237;-69
2022/03/24 10:24:12;;;;;;;;;;;;;;;26.73;57.16;97487.88;615133;230;65188;-71
2022/03/24 10:26:41;;;;;;;;;;;;;;;26.73;57.04;97482.48;615242;227;66841;-69
2022/03/24 10:29:09;;;;;;;;;;;;;;;26.73;57.01;97469.00;615137;230;65296;-75
2022/03/24 10:31:39;;;;;;;;;;;;;;;26.74;57.18;97470.63;615181;230;67087;-75
2022/03/24 10:34:06;;;;;;;;;;;;;;;26.75;57.53;97458.73;615165;230;66983;-74
2022/03/24 10:36:34;;;;;;;;;;;;;;;26.75;57.29;97463.33;615138;230;65113;-73
2022/03/24 10:39:08;;;;;;;;;;;;;;;26.75;57.96;97458.73;615141;230;65932;-74
2022/03/24 10:41:32;;;;;;;;;;;;;;;26.76;58.17;97451.44;615068;230;64841;-74
2022/03/24 10:44:02;;;;;;;;;;;;;;;26.77;56.90;97458.45;615027;230;65988;-71
2022/03/24 10:46:31;;;;;;;;;;;;;;;26.75;57.37;97453.34;615133;227;64845;-75
2022/03/24 10:48:59;;;;;;;;;;;;;;;26.76;57.73;97448.73;615157;230;67094;-70
2022/03/24 10:51:33;;;;;;;;;;;;;;;26.76;57.31;97440.66;615136;230;62766;-71
2022/03/24 10:54:05;;;;;;;;;;;;;;;26.77;57.69;97436.88;615157;230;65165;-70
2022/03/24 10:56:35;;;;;;;;;;;;;;;26.76;58.63;97435.26;615230;228;66991;-73
2022/03/24 10:59:04;;;;;;;;;;;;;;;26.76;57.77;97438.78;614985;228;63907;-73
2022/03/24 11:01:33;;;;;;;;;;;;;;;26.75;58.08;97420.98;615029;230;67332;-73
2022/03/24 11:04:00;;;;;;;;;;;;;;;26.77;58.36;97429.58;615024;230;66697;-73
2022/03/24 11:06:29;;;;;;;;;;;;;;;26.77;58.63;97431.48;615210;230;65349;-74
2022/03/24 11:09:01;;;;;;;;;;;;;;;26.76;58.79;97427.99;614979;230;67737;-73
2022/03/24 11:11:30;;;;;;;;;;;;;;;26.75;58.07;97426.38;615038;230;67306;-74
2022/03/24 11:13:58;;;;;;;;;;;;;;;26.76;57.73;97421.77;615143;230;63223;-71
2022/03/24 11:16:27;;;;;;;;;;;;;;;26.75;59.37;97404.80;615141;230;67055;-72
2022/03/24 11:18:56;;;;;;;;;;;;;;;26.76;58.94;97397.51;615086;230;67119;-70
2022/03/24 11:21:34;;;;;;;;;;;;;;;26.75;58.72;97404.80;615212;230;65107;-71
2022/03/24 11:24:02;;;;;;;;;;;;;;;26.74;57.69;97395.13;615205;230;64861;-70
2022/03/24 11:26:29;;;;;;;;;;;;;;;26.75;58.51;97404.02;615155;230;66886;-72
2022/03/24 11:28:57;;;;;;;;;;;;;;;26.71;58.54;97395.73;615161;230;63017;-72
2022/03/24 11:31:28;;;;;;;;;;;;;;;26.72;60.02;97389.23;615146;230;66767;-72
2022/03/24 11:33:56;;;;;;;;;;;;;;;26.69;58.76;97395.22;615057;230;66778;-59
2022/03/24 11:36:24;;;;;;;;;;;;;;;26.69;57.91;97387.14;615229;230;63207;-71
2022/03/24 11:38:52;;;;;;;;;;;;;;;26.67;59.13;97383.14;615149;230;65224;-71
2022/03/24 11:41:25;;;;;;;;;;;;;;;26.65;58.69;97386.13;615140;230;66985;-71
2022/03/24 11:43:54;;;;;;;;;;;;;;;26.66;58.42;97384.25;615164;230;65427;-71
2022/03/24 11:46:29;;;;;;;;;;;;;;;26.63;57.96;97372.16;615041;230;67260;-73
2022/03/24 11:49:16;;;;;;;;;;;;;;;26.63;57.49;97369.47;615144;230;66746;-73
2022/03/24 11:51:45;;;;;;;;;;;;;;;26.66;58.05;97365.38;615197;230;66309;-73
2022/03/24 11:54:14;;;;;;;;;;;;;;;26.67;57.96;97380.44;615002;230;67020;-73
2022/03/24 11:56:42;;;;;;;;;;;;;;;26.66;57.77;97379.66;621823;228;66906;-72
2022/03/24 11:59:11;;;;;;;;;;;;;;;26.64;58.40;97373.75;622585;228;65302;-73
2022/03/24 12:01:38;;;;;;;;;;;;;;;26.65;57.57;97361.86;622449;228;67991;-74
2022/03/24 12:04:08;;;;;;;;;;;;;;;26.65;57.49;97350.28;622591;228;66910;-69
2022/03/24 12:06:43;;;;;;;;;;;;;;;26.65;57.97;97361.06;622624;228;65876;-63
2022/03/24 12:09:12;;;;;;;;;;;;;;;26.64;58.74;97349.49;622396;228;67213;-71
2022/03/24 12:11:43;;;;;;;;;;;;;;;26.63;58.98;97353.30;622570;228;64672;-72
2022/03/24 12:14:16;;;;;;;;;;;;;;;26.64;55.92;97343.31;622479;228;65372;-74
2022/03/24 12:16:45;;;;;;;;;;;;;;;26.58;53.01;97334.52;622279;228;64899;-77
2022/03/24 12:19:30;;;;;;;;;;;;;;;26.61;56.81;97336.61;622241;227;67146;-71
2022/03/24 12:21:58;;;;;;;;;;;;;;;26.59;52.71;97344.20;622529;228;65351;-72
2022/03/24 12:24:27;;;;;;;;;;;;;;;26.58;57.24;97336.42;622546;228;68196;-72
2022/03/24 12:27:04;;;;;;;;;;;;;;;26.56;57.19;97331.32;622139;228;67306;-73
2022/03/24 12:29:30;;;;;;;;;;;;;;;26.55;57.96;97346.70;622471;228;63109;-71
2022/03/24 12:31:59;;;;;;;;;;;;;;;26.53;58.06;97335.41;622499;228;64651;-71
2022/03/24 12:34:48;;;;;;;;;;;;;;;26.51;56.95;97336.81;622392;228;67036;-70
2022/03/24 12:37:29;;;;;;;;;;;;;;;26.49;57.79;97326.31;622076;228;63142;-72
2022/03/24 12:40:09;;;;;;;;;;;;;;;26.50;58.08;97316.33;622544;228;65212;-70
2022/03/24 12:42:46;;;;;;;;;;;;;;;26.48;57.51;97313.13;622513;228;66665;-71
2022/03/24 12:45:27;;;;;;;;;;;;;;;26.46;58.17;97326.88;622530;228;65341;-72
2022/03/24 12:47:56;;;;;;;;;;;;;;;26.46;57.11;97318.80;622508;228;64322;-71
2022/03/24 12:50:28;;;;;;;;;;;;;;;26.45;58.30;97313.73;622383;228;64465;-71
2022/03/24 12:52:57;;;;;;;;;;;;;;;26.43;58.04;97308.63;622413;228;63091;-72
2022/03/24 12:55:34;;;;;;;;;;;;;;;26.43;57.93;97310.53;615832;228;70639;-72
2022/03/24 12:57:59;;;;;;;;;;;;;;;26.44;57.27;97325.62;622415;228;66797;-72